createdAt,value
2022-11-23T00:00:55.362Z,99717.47
2022-11-23T00:01:56.231Z,99718.10
2022-11-23T00:02:57.156Z,99718.23
2022-11-23T00:03:05.793Z,99721.48
2022-11-23T00:04:07.641Z,99720.55
2022-11-23T00:05:08.209Z,99720.80
2022-11-23T00:06:08.881Z,99720.72
2022-11-23T00:07:09.318Z,99720.21
2022-11-23T00:08:08.465Z,99719.75
2022-11-23T00:09:10.100Z,99719.50
2022-11-23T00:10:10.363Z,99719.74
2022-11-23T00:11:09.574Z,99720.38
2022-11-23T00:12:09.992Z,99720.63
2022-11-23T00:13:11.549Z,99720.88
2022-11-23T00:14:10.999Z,99721.25
2022-11-23T00:15:12.847Z,99721.16
2022-11-23T00:16:13.148Z,99721.75
2022-11-23T00:17:13.934Z,99722.00
2022-11-23T00:18:13.686Z,99722.77
2022-11-23T00:19:14.363Z,99723.27
2022-11-23T00:20:16.066Z,99724.28
2022-11-23T00:21:15.771Z,99724.91
2022-11-23T00:22:16.127Z,99725.67
2022-11-23T00:23:17.358Z,99726.34
2022-11-23T00:24:18.299Z,99726.59
2022-11-23T00:24:27.102Z,99733.31
2022-11-23T00:25:27.865Z,99733.48
2022-11-23T00:26:29.351Z,99733.23
2022-11-23T00:27:28.658Z,99733.57
2022-11-23T00:28:29.046Z,99733.08
2022-11-23T00:29:30.978Z,99733.24
2022-11-23T00:30:30.489Z,99734.08
2022-11-23T00:31:30.957Z,99734.46
2022-11-23T00:32:31.339Z,99735.05
2022-11-23T00:33:31.391Z,99735.35
2022-11-23T00:34:33.128Z,99736.16
2022-11-23T00:35:32.633Z,99737.25
2022-11-23T00:36:34.472Z,99738.35
2022-11-23T00:37:35.216Z,99738.81
2022-11-23T00:38:34.374Z,99739.06
2022-11-23T00:39:34.986Z,99739.16
2022-11-23T00:40:35.453Z,99739.99
2022-11-23T00:41:37.150Z,99740.66
2022-11-23T00:42:38.405Z,99741.67
2022-11-23T00:43:37.008Z,99742.27
2022-11-23T00:44:38.868Z,99743.52
2022-11-23T00:45:38.232Z,99743.44
2022-11-23T00:46:38.858Z,99744.23
2022-11-23T00:47:38.948Z,99744.66
2022-11-23T00:48:39.356Z,99744.98
2022-11-23T00:48:48.997Z,99746.65
2022-11-23T00:49:49.864Z,99745.64
2022-11-23T00:50:50.387Z,99745.72
2022-11-23T00:51:51.778Z,99745.62
2022-11-23T00:52:51.910Z,99745.38
2022-11-23T00:53:52.012Z,99745.42
2022-11-23T00:54:52.516Z,99745.50
2022-11-23T00:55:51.645Z,99745.12
2022-11-23T00:56:52.304Z,99744.44
2022-11-23T00:57:53.226Z,99744.23
2022-11-23T00:58:54.461Z,99744.30
2022-11-23T00:59:54.639Z,99744.47
2022-11-23T01:00:54.164Z,99744.34
2022-11-23T01:01:55.904Z,99744.23
2022-11-23T01:02:55.555Z,99744.52
2022-11-23T01:03:55.773Z,99744.22
2022-11-23T01:04:57.409Z,99744.09
2022-11-23T01:05:57.922Z,99744.30
2022-11-23T01:06:58.441Z,99744.34
2022-11-23T01:07:59.074Z,99744.25
2022-11-23T01:09:00.004Z,99744.58
2022-11-23T01:09:08.696Z,99749.83
2022-11-23T01:10:10.350Z,99749.25
2022-11-23T01:11:10.996Z,99749.25
2022-11-23T01:12:11.554Z,99748.83
2022-11-23T01:13:11.276Z,99749.16
2022-11-23T01:14:12.458Z,99749.50
2022-11-23T01:15:12.938Z,99749.92
2022-11-23T01:16:12.947Z,99750.05
2022-11-23T01:17:12.027Z,99749.87
2022-11-23T01:18:12.885Z,99750.17
2022-11-23T01:19:13.527Z,99750.08
2022-11-23T01:20:14.839Z,99750.67
2022-11-23T01:21:14.434Z,99750.84
2022-11-23T01:22:16.049Z,99750.89
2022-11-23T01:23:15.619Z,99751.13
2022-11-23T01:24:16.144Z,99751.21
2022-11-23T01:25:16.707Z,99751.67
2022-11-23T01:26:18.301Z,99752.08
2022-11-23T01:27:19.277Z,99752.55
2022-11-23T01:28:18.651Z,99752.62
2022-11-23T01:29:19.251Z,99752.67
2022-11-23T01:30:19.949Z,99752.84
2022-11-23T01:31:21.167Z,99753.00
2022-11-23T01:31:29.807Z,99765.95
2022-11-23T01:32:30.276Z,99765.27
2022-11-23T01:33:30.452Z,99764.69
2022-11-23T01:34:31.132Z,99764.60
2022-11-23T01:35:31.849Z,99764.30
2022-11-23T01:36:32.776Z,99763.88
2022-11-23T01:37:33.193Z,99764.34
2022-11-23T01:38:33.390Z,99764.67
2022-11-23T01:39:34.126Z,99764.97
2022-11-23T01:40:34.513Z,99765.47
2022-11-23T01:41:35.292Z,99765.88
2022-11-23T01:42:37.003Z,99765.72
2022-11-23T01:43:36.357Z,99766.30
2022-11-23T01:44:37.250Z,99766.47
2022-11-23T01:45:38.078Z,99766.97
2022-11-23T01:46:38.758Z,99766.89
2022-11-23T01:47:39.050Z,99767.56
2022-11-23T01:48:39.809Z,99767.99
2022-11-23T01:49:40.413Z,99769.29
2022-11-23T01:50:41.097Z,99769.96
2022-11-23T01:51:41.910Z,99770.55
2022-11-23T01:52:42.515Z,99771.23
2022-11-23T01:53:43.757Z,99771.64
2022-11-23T01:54:43.071Z,99772.36
2022-11-23T01:55:43.793Z,99772.70
2022-11-23T01:56:43.883Z,99774.05
2022-11-23T01:57:44.196Z,99775.22
2022-11-23T01:58:44.282Z,99776.06
2022-11-23T01:59:44.628Z,99776.73
2022-11-23T01:59:53.291Z,99788.30
2022-11-23T02:00:53.686Z,99787.87
2022-11-23T02:01:53.622Z,99788.05
2022-11-23T02:02:53.850Z,99788.00
2022-11-23T02:03:54.152Z,99787.41
2022-11-23T02:04:54.510Z,99787.00
2022-11-23T02:05:56.297Z,99787.00
2022-11-23T02:06:56.159Z,99786.11
2022-11-23T02:07:56.302Z,99785.11
2022-11-23T02:08:56.987Z,99784.02
2022-11-23T02:09:58.093Z,99784.02
2022-11-23T02:10:58.866Z,99783.47
2022-11-23T02:11:59.551Z,99783.73
2022-11-23T02:12:59.111Z,99783.89
2022-11-23T02:13:59.323Z,99783.82
2022-11-23T02:14:59.658Z,99783.39
2022-11-23T02:16:00.509Z,99783.89
2022-11-23T02:17:01.719Z,99784.23
2022-11-23T02:18:01.718Z,99784.41
2022-11-23T02:19:00.807Z,99784.33
2022-11-23T02:20:01.145Z,99785.00
2022-11-23T02:21:01.452Z,99784.58
2022-11-23T02:22:02.704Z,99784.87
2022-11-23T02:23:03.617Z,99784.12
2022-11-23T02:23:12.288Z,99785.54
2022-11-23T02:24:12.636Z,99785.20
2022-11-23T02:25:13.432Z,99784.70
2022-11-23T02:26:13.710Z,99784.75
2022-11-23T02:27:14.150Z,99785.09
2022-11-23T02:28:14.629Z,99786.16
2022-11-23T02:29:14.797Z,99786.54
2022-11-23T02:30:14.817Z,99787.22
2022-11-23T02:31:14.957Z,99788.11
2022-11-23T02:32:15.849Z,99788.45
2022-11-23T02:33:17.587Z,99789.08
2022-11-23T02:34:16.940Z,99788.75
2022-11-23T02:35:17.508Z,99789.01
2022-11-23T02:36:18.025Z,99789.63
2022-11-23T02:37:19.013Z,99789.72
2022-11-23T02:38:19.339Z,99790.06
2022-11-23T02:39:19.747Z,99790.06
2022-11-23T02:40:21.700Z,99790.23
2022-11-23T02:41:21.984Z,99790.15
2022-11-23T02:42:21.097Z,99790.27
2022-11-23T02:43:22.111Z,99790.19
2022-11-23T02:44:22.818Z,99790.11
2022-11-23T02:45:22.963Z,99790.20
2022-11-23T02:46:23.001Z,99789.81
2022-11-23T02:47:24.099Z,99789.56
2022-11-23T02:48:23.361Z,99788.89
2022-11-23T02:49:23.331Z,99788.80
2022-11-23T02:50:23.489Z,99788.13
2022-11-23T02:50:32.567Z,99786.44
2022-11-23T02:51:32.709Z,99786.10
2022-11-23T02:52:33.701Z,99785.35
2022-11-23T02:53:34.535Z,99784.59
2022-11-23T02:54:35.230Z,99784.89
2022-11-23T02:55:36.677Z,99784.56
2022-11-23T02:56:35.713Z,99783.84
2022-11-23T02:57:36.493Z,99784.14
2022-11-23T02:58:36.668Z,99784.49
2022-11-23T02:59:37.341Z,99784.70
2022-11-23T03:00:37.686Z,99784.88
2022-11-23T03:01:38.033Z,99784.58
2022-11-23T03:02:39.637Z,99784.38
2022-11-23T03:03:39.536Z,99784.55
2022-11-23T03:04:41.535Z,99785.31
2022-11-23T03:05:41.037Z,99785.19
2022-11-23T03:06:41.974Z,99785.56
2022-11-23T03:07:42.349Z,99785.57
2022-11-23T03:08:42.362Z,99785.83
2022-11-23T03:09:43.354Z,99786.00
2022-11-23T03:10:43.563Z,99785.95
2022-11-23T03:11:43.727Z,99785.79
2022-11-23T03:12:44.237Z,99785.50
2022-11-23T03:13:45.104Z,99785.75
2022-11-23T03:14:45.553Z,99785.88
2022-11-23T03:15:45.687Z,99786.23
2022-11-23T03:16:45.921Z,99786.02
2022-11-23T03:17:47.079Z,99786.23
2022-11-23T03:18:47.266Z,99786.75
2022-11-23T03:18:55.875Z,99786.72
2022-11-23T03:19:56.472Z,99785.97
2022-11-23T03:20:56.614Z,99786.22
2022-11-23T03:21:57.644Z,99786.30
2022-11-23T03:22:56.873Z,99786.13
2022-11-23T03:23:57.042Z,99786.00
2022-11-23T03:24:57.694Z,99786.25
2022-11-23T03:25:58.024Z,99786.16
2022-11-23T03:26:58.850Z,99786.22
2022-11-23T03:27:59.035Z,99786.46
2022-11-23T03:28:59.270Z,99787.13
2022-11-23T03:29:59.939Z,99787.34
2022-11-23T03:31:01.041Z,99788.17
2022-11-23T03:32:00.178Z,99787.91
2022-11-23T03:33:01.419Z,99788.05
2022-11-23T03:34:00.580Z,99788.67
2022-11-23T03:35:00.646Z,99789.00
2022-11-23T03:36:00.831Z,99789.80
2022-11-23T03:37:01.230Z,99790.22
2022-11-23T03:38:01.297Z,99791.05
2022-11-23T03:39:02.032Z,99791.09
2022-11-23T03:40:02.970Z,99791.77
2022-11-23T03:41:03.270Z,99792.39
2022-11-23T03:42:03.863Z,99793.22
2022-11-23T03:43:04.588Z,99794.02
2022-11-23T03:44:04.754Z,99794.19
2022-11-23T03:45:05.015Z,99794.86
2022-11-23T03:45:13.655Z,99808.05
2022-11-23T03:46:14.539Z,99806.80
2022-11-23T03:47:14.708Z,99806.62
2022-11-23T03:48:14.839Z,99806.62
2022-11-23T03:49:16.081Z,99806.12
2022-11-23T03:50:15.156Z,99805.70
2022-11-23T03:51:16.277Z,99805.53
2022-11-23T03:52:15.599Z,99805.94
2022-11-23T03:53:16.653Z,99806.02
2022-11-23T03:54:15.926Z,99805.40
2022-11-23T03:55:17.467Z,99805.05
2022-11-23T03:56:16.627Z,99804.67
2022-11-23T03:57:17.949Z,99804.55
2022-11-23T03:58:17.484Z,99804.20
2022-11-23T03:59:17.670Z,99803.83
2022-11-23T04:00:17.822Z,99803.57
2022-11-23T04:01:18.832Z,99802.81
2022-11-23T04:02:19.071Z,99802.43
2022-11-23T04:03:19.428Z,99802.17
2022-11-23T04:04:19.824Z,99801.91
2022-11-23T04:05:20.220Z,99801.08
2022-11-23T04:06:20.747Z,99801.13
2022-11-23T04:07:21.361Z,99801.13
2022-11-23T04:08:21.808Z,99800.95
2022-11-23T04:09:22.088Z,99800.57
2022-11-23T04:10:22.343Z,99800.41
2022-11-23T04:11:23.008Z,99800.87
2022-11-23T04:11:31.678Z,99801.13
2022-11-23T04:12:31.963Z,99800.20
2022-11-23T04:13:32.306Z,99800.20
2022-11-23T04:14:32.768Z,99800.30
2022-11-23T04:15:32.968Z,99800.59
2022-11-23T04:16:34.198Z,99800.25
2022-11-23T04:17:34.514Z,99800.18
2022-11-23T04:18:33.821Z,99800.01
2022-11-23T04:19:35.013Z,99799.29
2022-11-23T04:20:34.901Z,99799.05
2022-11-23T04:21:34.951Z,99798.62
2022-11-23T04:22:35.422Z,99798.16
2022-11-23T04:23:36.022Z,99797.42
2022-11-23T04:24:36.053Z,99797.16
2022-11-23T04:25:36.154Z,99797.05
2022-11-23T04:26:36.446Z,99796.92
2022-11-23T04:27:37.008Z,99796.81
2022-11-23T04:28:38.306Z,99796.61
2022-11-23T04:29:37.421Z,99796.91
2022-11-23T04:30:37.826Z,99797.26
2022-11-23T04:31:37.841Z,99798.11
2022-11-23T04:32:38.608Z,99798.62
2022-11-23T04:33:39.766Z,99799.39
2022-11-23T04:34:39.663Z,99799.39
2022-11-23T04:35:39.841Z,99800.04
2022-11-23T04:36:40.587Z,99800.17
2022-11-23T04:37:41.062Z,99799.84
2022-11-23T04:38:41.869Z,99799.98
2022-11-23T04:38:50.500Z,99804.13
2022-11-23T04:39:50.981Z,99803.37
2022-11-23T04:40:51.235Z,99803.55
2022-11-23T04:41:51.573Z,99803.59
2022-11-23T04:42:52.125Z,99803.37
2022-11-23T04:43:53.113Z,99803.42
2022-11-23T04:44:53.546Z,99803.82
2022-11-23T04:45:53.525Z,99803.83
2022-11-23T04:46:54.962Z,99804.17
2022-11-23T04:47:54.495Z,99805.09
2022-11-23T04:48:55.550Z,99805.23
2022-11-23T04:49:56.205Z,99805.25
2022-11-23T04:50:55.889Z,99805.59
2022-11-23T04:51:55.402Z,99806.17
2022-11-23T04:52:55.532Z,99806.19
2022-11-23T04:53:55.618Z,99806.74
2022-11-23T04:54:55.646Z,99807.50
2022-11-23T04:55:55.682Z,99808.17
2022-11-23T04:56:55.709Z,99809.19
2022-11-23T04:57:55.842Z,99810.20
2022-11-23T04:58:55.839Z,99810.97
2022-11-23T04:59:56.398Z,99811.91
2022-11-23T05:00:56.844Z,99813.08
2022-11-23T05:01:56.898Z,99814.34
2022-11-23T05:02:57.509Z,99815.62
2022-11-23T05:03:57.889Z,99816.89
2022-11-23T05:04:58.381Z,99817.90
2022-11-23T05:05:59.766Z,99819.08
2022-11-23T05:06:08.444Z,99841.23
2022-11-23T05:07:08.845Z,99840.32
2022-11-23T05:08:09.119Z,99840.10
2022-11-23T05:09:09.117Z,99840.10
2022-11-23T05:10:09.738Z,99839.77
2022-11-23T05:11:10.598Z,99839.89
2022-11-23T05:12:12.013Z,99840.41
2022-11-23T05:13:11.585Z,99841.50
2022-11-23T05:14:11.981Z,99842.29
2022-11-23T05:15:12.723Z,99842.55
2022-11-23T05:16:13.052Z,99843.55
2022-11-23T05:17:13.457Z,99843.80
2022-11-23T05:18:13.895Z,99844.72
2022-11-23T05:19:14.543Z,99845.06
2022-11-23T05:20:14.662Z,99845.64
2022-11-23T05:21:15.242Z,99846.27
2022-11-23T05:22:15.642Z,99846.52
2022-11-23T05:23:17.480Z,99847.16
2022-11-23T05:24:16.739Z,99847.66
2022-11-23T05:25:17.531Z,99847.95
2022-11-23T05:26:17.680Z,99848.78
2022-11-23T05:27:17.673Z,99849.09
2022-11-23T05:28:38.919Z,99850.13
2022-11-23T05:29:19.208Z,99851.14
2022-11-23T05:30:19.957Z,99851.60
2022-11-23T05:31:20.184Z,99852.77
2022-11-23T05:32:20.891Z,99852.48
2022-11-23T05:33:22.640Z,99852.98
2022-11-23T05:33:31.322Z,99855.40
2022-11-23T05:34:31.758Z,99855.23
2022-11-23T05:35:32.750Z,99855.06
2022-11-23T05:36:33.571Z,99854.72
2022-11-23T05:37:33.481Z,99854.72
2022-11-23T05:38:33.544Z,99854.94
2022-11-23T05:39:34.045Z,99855.19
2022-11-23T05:40:34.224Z,99855.27
2022-11-23T05:41:34.983Z,99855.10
2022-11-23T05:42:36.138Z,99855.52
2022-11-23T05:43:35.939Z,99855.23
2022-11-23T05:44:37.302Z,99855.66
2022-11-23T05:45:36.911Z,99855.73
2022-11-23T05:46:37.548Z,99855.98
2022-11-23T05:47:38.348Z,99855.86
2022-11-23T05:48:39.229Z,99855.47
2022-11-23T05:49:39.667Z,99856.06
2022-11-23T05:50:40.929Z,99857.08
2022-11-23T05:51:40.365Z,99857.66
2022-11-23T05:52:40.397Z,99858.34
2022-11-23T05:53:40.698Z,99859.09
2022-11-23T05:54:41.278Z,99859.43
2022-11-23T05:55:42.888Z,99859.94
2022-11-23T05:56:42.031Z,99860.05
2022-11-23T05:57:42.620Z,99860.39
2022-11-23T05:58:43.396Z,99860.64
2022-11-23T05:59:44.137Z,99860.98
2022-11-23T05:59:53.296Z,99869.29
2022-11-23T06:00:53.545Z,99868.54
2022-11-23T06:01:53.873Z,99868.20
2022-11-23T06:02:54.235Z,99868.03
2022-11-23T06:03:55.298Z,99867.65
2022-11-23T06:04:55.864Z,99867.48
2022-11-23T06:05:56.314Z,99867.06
2022-11-23T06:06:56.835Z,99866.56
2022-11-23T06:07:57.391Z,99866.06
2022-11-23T06:08:57.899Z,99865.56
2022-11-23T06:09:58.158Z,99864.72
2022-11-23T06:10:58.901Z,99864.37
2022-11-23T06:12:00.116Z,99863.29
2022-11-23T06:12:59.279Z,99863.00
2022-11-23T06:14:00.281Z,99862.23
2022-11-23T06:15:00.546Z,99861.73
2022-11-23T06:16:01.230Z,99860.85
2022-11-23T06:17:01.852Z,99859.59
2022-11-23T06:18:02.158Z,99858.80
2022-11-23T06:19:02.787Z,99858.03
2022-11-23T06:20:02.880Z,99857.95
2022-11-23T06:21:04.708Z,99857.49
2022-11-23T06:22:04.021Z,99856.66
2022-11-23T06:23:04.107Z,99856.66
2022-11-23T06:24:04.138Z,99855.98
2022-11-23T06:25:04.242Z,99855.65
2022-11-23T06:26:04.782Z,99855.31
2022-11-23T06:27:05.648Z,99854.98
2022-11-23T06:28:05.902Z,99854.77
2022-11-23T06:29:06.555Z,99854.84
2022-11-23T06:30:06.604Z,99855.34
2022-11-23T06:30:15.255Z,99859.77
2022-11-23T06:31:15.579Z,99859.22
2022-11-23T06:32:15.653Z,99859.44
2022-11-23T06:33:16.419Z,99859.44
2022-11-23T06:34:16.896Z,99859.27
2022-11-23T06:35:17.340Z,99858.59
2022-11-23T06:36:18.101Z,99858.51
2022-11-23T06:37:18.512Z,99858.34
2022-11-23T06:38:18.789Z,99858.34
2022-11-23T06:39:18.805Z,99858.09
2022-11-23T06:40:20.457Z,99858.42
2022-11-23T06:41:19.670Z,99859.05
2022-11-23T06:43:20.337Z,99859.05
2022-11-23T06:44:20.972Z,99859.14
2022-11-23T06:45:21.138Z,99859.52
2022-11-23T06:46:21.798Z,99859.52
2022-11-23T06:47:26.089Z,99860.14
2022-11-23T06:48:22.610Z,99860.56
2022-11-23T06:49:23.373Z,99860.82
2022-11-23T06:50:24.298Z,99861.24
2022-11-23T06:51:24.355Z,99862.03
2022-11-23T06:52:25.278Z,99862.49
2022-11-23T06:53:25.309Z,99863.37
2022-11-23T06:54:27.484Z,99864.22
2022-11-23T06:55:26.265Z,99864.59
2022-11-23T06:56:26.568Z,99865.11
2022-11-23T06:57:27.188Z,99865.81
2022-11-23T06:58:28.095Z,99866.74
2022-11-23T06:58:37.881Z,99881.59
2022-11-23T06:59:44.471Z,99881.34
2022-11-23T07:00:39.234Z,99881.59
2022-11-23T07:01:40.263Z,99881.27
2022-11-23T07:02:40.974Z,99881.68
2022-11-23T07:03:41.264Z,99882.41
2022-11-23T07:04:41.551Z,99883.48
2022-11-23T07:05:41.709Z,99884.29
2022-11-23T07:06:42.534Z,99884.95
2022-11-23T07:07:43.354Z,99885.75
2022-11-23T07:08:43.773Z,99886.09
2022-11-23T07:09:45.602Z,99886.72
2022-11-23T07:10:45.656Z,99886.88
2022-11-23T07:11:45.289Z,99887.77
2022-11-23T07:12:46.227Z,99888.23
2022-11-23T07:13:46.735Z,99888.31
2022-11-23T07:14:47.482Z,99889.57
2022-11-23T07:15:49.510Z,99890.41
2022-11-23T07:16:49.660Z,99891.25
2022-11-23T07:17:49.358Z,99892.09
2022-11-23T07:18:50.171Z,99893.42
2022-11-23T07:19:50.212Z,99893.68
2022-11-23T07:20:52.126Z,99894.36
2022-11-23T07:21:51.488Z,99895.19
2022-11-23T07:22:52.015Z,99896.23
2022-11-23T07:23:00.726Z,99914.03
2022-11-23T07:24:00.688Z,99913.87
2022-11-23T07:25:01.547Z,99913.36
2022-11-23T07:26:02.341Z,99913.61
2022-11-23T07:27:02.429Z,99913.86
2022-11-23T07:28:03.002Z,99913.69
2022-11-23T07:29:04.210Z,99913.82
2022-11-23T07:30:04.107Z,99914.32
2022-11-23T07:31:04.226Z,99914.70
2022-11-23T07:32:04.419Z,99915.54
2022-11-23T07:33:05.275Z,99916.52
2022-11-23T07:34:05.355Z,99917.17
2022-11-23T07:35:05.454Z,99917.47
2022-11-23T07:36:06.263Z,99918.27
2022-11-23T07:37:07.020Z,99918.56
2022-11-23T07:38:07.745Z,99918.86
2022-11-23T07:39:08.457Z,99918.90
2022-11-23T07:40:08.971Z,99919.53
2022-11-23T07:41:09.215Z,99919.48
2022-11-23T07:42:31.742Z,99919.27
2022-11-23T07:43:09.565Z,99919.56
2022-11-23T07:44:09.771Z,99918.85
2022-11-23T07:45:11.208Z,99918.86
2022-11-23T07:46:10.661Z,99918.39
2022-11-23T07:47:10.797Z,99917.47
2022-11-23T07:48:10.911Z,99916.58
2022-11-23T07:49:11.354Z,99915.58
2022-11-23T07:50:11.713Z,99914.57
2022-11-23T07:51:12.539Z,99912.89
2022-11-23T07:51:21.193Z,99890.08
2022-11-23T07:52:21.675Z,99889.36
2022-11-23T07:53:22.376Z,99889.07
2022-11-23T07:54:23.918Z,99889.15
2022-11-23T07:55:22.797Z,99889.48
2022-11-23T07:56:23.741Z,99889.20
2022-11-23T07:57:24.805Z,99890.08
2022-11-23T07:58:23.953Z,99890.15
2022-11-23T07:59:24.659Z,99889.69
2022-11-23T08:00:24.794Z,99889.89
2022-11-23T08:01:25.317Z,99890.36
2022-11-23T08:02:26.186Z,99889.98
2022-11-23T08:03:28.543Z,99890.27
2022-11-23T08:04:27.527Z,99889.89
2022-11-23T08:05:27.604Z,99889.92
2022-11-23T08:06:28.511Z,99889.55
2022-11-23T08:07:29.205Z,99889.33
2022-11-23T08:08:29.603Z,99889.75
2022-11-23T08:09:30.405Z,99889.20
2022-11-23T08:10:31.213Z,99888.94
2022-11-23T08:11:31.607Z,99888.52
2022-11-23T08:12:32.471Z,99889.05
2022-11-23T08:13:32.836Z,99888.88
2022-11-23T08:14:34.239Z,99888.78
2022-11-23T08:15:34.378Z,99888.33
2022-11-23T08:16:34.431Z,99888.73
2022-11-23T08:17:34.732Z,99887.88
2022-11-23T08:18:35.195Z,99887.75
2022-11-23T08:18:43.866Z,99886.17
2022-11-23T08:19:44.524Z,99885.25
2022-11-23T08:20:45.327Z,99885.84
2022-11-23T08:21:45.509Z,99886.09
2022-11-23T08:22:46.298Z,99886.09
2022-11-23T08:23:47.008Z,99886.84
2022-11-23T08:24:48.035Z,99887.64
2022-11-23T08:25:47.493Z,99887.34
2022-11-23T08:26:47.597Z,99887.37
2022-11-23T08:27:48.221Z,99887.41
2022-11-23T08:28:49.485Z,99887.07
2022-11-23T08:29:48.785Z,99886.97
2022-11-23T08:30:49.546Z,99886.89
2022-11-23T08:31:50.009Z,99886.97
2022-11-23T08:32:50.188Z,99887.25
2022-11-23T08:33:50.230Z,99887.29
2022-11-23T08:34:51.092Z,99887.91
2022-11-23T08:35:51.365Z,99888.53
2022-11-23T08:36:51.681Z,99889.21
2022-11-23T08:37:51.995Z,99888.99
2022-11-23T08:38:52.220Z,99889.78
2022-11-23T08:39:52.432Z,99889.77
2022-11-23T08:40:52.605Z,99890.14
2022-11-23T08:41:52.777Z,99890.17
2022-11-23T08:42:52.951Z,99890.52
2022-11-23T08:43:52.973Z,99890.46
2022-11-23T08:44:53.536Z,99890.83
2022-11-23T08:45:56.596Z,99890.19
2022-11-23T08:46:06.668Z,99895.04
2022-11-23T08:47:03.472Z,99894.37
2022-11-23T08:48:03.931Z,99893.77
2022-11-23T08:49:04.214Z,99893.39
2022-11-23T08:50:04.819Z,99893.09
2022-11-23T08:51:04.994Z,99893.14
2022-11-23T08:52:06.610Z,99892.58
2022-11-23T08:53:05.744Z,99892.23
2022-11-23T08:54:06.117Z,99892.03
2022-11-23T08:55:06.838Z,99891.60
2022-11-23T08:56:08.784Z,99891.38
2022-11-23T08:57:08.061Z,99890.83
2022-11-23T08:58:13.117Z,99890.95
2022-11-23T08:59:08.250Z,99890.73
2022-11-23T09:00:08.605Z,99891.14
2022-11-23T09:01:08.902Z,99891.00
2022-11-23T09:02:09.272Z,99889.90
2022-11-23T09:03:09.982Z,99889.34
2022-11-23T09:04:10.279Z,99888.95
2022-11-23T09:05:10.752Z,99888.89
2022-11-23T09:06:11.653Z,99888.94
2022-11-23T09:07:11.781Z,99889.22
2022-11-23T09:08:11.872Z,99888.66
2022-11-23T09:08:21.548Z,99889.93
2022-11-23T09:09:21.845Z,99889.21
2022-11-23T09:10:22.528Z,99889.55
2022-11-23T09:11:23.209Z,99889.89
2022-11-23T09:12:23.328Z,99890.36
2022-11-23T09:13:24.240Z,99891.20
2022-11-23T09:14:24.659Z,99891.38
2022-11-23T09:15:25.030Z,99891.95
2022-11-23T09:16:28.459Z,99892.47
2022-11-23T09:17:25.955Z,99892.92
2022-11-23T09:18:27.265Z,99893.52
2022-11-23T09:19:26.674Z,99893.98
2022-11-23T09:20:26.815Z,99895.44
2022-11-23T09:21:27.793Z,99896.48
2022-11-23T09:22:28.284Z,99897.07
2022-11-23T09:23:28.490Z,99897.23
2022-11-23T09:24:28.585Z,99898.28
2022-11-23T09:25:28.672Z,99899.08
2022-11-23T09:26:29.515Z,99899.82
2022-11-23T09:27:29.683Z,99900.36
2022-11-23T09:28:29.971Z,99901.19
2022-11-23T09:29:30.194Z,99901.57
2022-11-23T09:30:30.380Z,99902.91
2022-11-23T09:31:30.797Z,99903.20
2022-11-23T09:32:31.113Z,99904.38
2022-11-23T09:33:31.445Z,99904.67
2022-11-23T09:34:32.336Z,99905.21
2022-11-23T09:35:32.412Z,99905.78
2022-11-23T09:36:32.603Z,99906.42
2022-11-23T09:37:32.803Z,99907.67
2022-11-23T09:37:41.465Z,99927.33
2022-11-23T09:38:56.075Z,99926.44
2022-11-23T09:39:42.815Z,99927.11
2022-11-23T09:40:43.171Z,99926.98
2022-11-23T09:41:43.616Z,99927.33
2022-11-23T09:42:44.095Z,99927.83
2022-11-23T09:43:44.934Z,99927.78
2022-11-23T09:44:45.691Z,99928.12
2022-11-23T09:45:46.613Z,99928.12
2022-11-23T09:46:47.187Z,99928.34
2022-11-23T09:47:47.326Z,99928.14
2022-11-23T09:48:48.789Z,99928.02
2022-11-23T09:49:48.039Z,99927.77
2022-11-23T09:50:48.688Z,99927.95
2022-11-23T09:51:48.899Z,99927.98
2022-11-23T09:52:49.595Z,99928.84
2022-11-23T09:53:50.062Z,99929.72
2022-11-23T09:54:50.716Z,99930.06
2022-11-23T09:55:52.095Z,99930.65
2022-11-23T09:56:54.828Z,99930.60
2022-11-23T09:57:52.373Z,99930.69
2022-11-23T09:58:53.049Z,99930.94
2022-11-23T09:59:53.435Z,99930.78
2022-11-23T10:00:54.107Z,99930.78
2022-11-23T10:01:54.245Z,99930.95
2022-11-23T10:02:55.108Z,99930.45
2022-11-23T10:03:56.073Z,99930.02
2022-11-23T10:04:56.494Z,99930.03
2022-11-23T10:05:56.993Z,99929.64
2022-11-23T10:06:05.698Z,99921.28
2022-11-23T10:07:05.764Z,99920.36
2022-11-23T10:08:06.021Z,99920.86
2022-11-23T10:09:06.777Z,99920.94
2022-11-23T10:10:07.710Z,99920.31
2022-11-23T10:11:08.205Z,99919.88
2022-11-23T10:12:10.035Z,99920.21
2022-11-23T10:13:09.429Z,99919.48
2022-11-23T10:14:10.426Z,99919.13
2022-11-23T10:15:10.744Z,99918.27
2022-11-23T10:16:11.494Z,99917.41
2022-11-23T10:17:11.827Z,99916.89
2022-11-23T10:18:12.098Z,99916.64
2022-11-23T10:19:12.239Z,99916.94
2022-11-23T10:20:12.997Z,99916.16
2022-11-23T10:21:13.323Z,99916.83
2022-11-23T10:22:13.320Z,99916.80
2022-11-23T10:23:13.700Z,99917.30
2022-11-23T10:24:14.172Z,99917.42
2022-11-23T10:25:14.827Z,99918.47
2022-11-23T10:26:14.899Z,99918.49
2022-11-23T10:27:15.246Z,99918.88
2022-11-23T10:28:16.194Z,99919.18
2022-11-23T10:29:16.435Z,99918.84
2022-11-23T10:30:16.531Z,99917.79
2022-11-23T10:31:16.724Z,99917.14
2022-11-23T10:32:17.004Z,99915.99
2022-11-23T10:33:17.234Z,99915.64
2022-11-23T10:33:27.965Z,99906.61
2022-11-23T10:34:28.578Z,99906.10
2022-11-23T10:35:29.425Z,99905.34
2022-11-23T10:36:29.409Z,99904.88
2022-11-23T10:37:29.564Z,99903.95
2022-11-23T10:38:29.809Z,99903.31
2022-11-23T10:39:30.743Z,99902.80
2022-11-23T10:40:31.134Z,99902.51
2022-11-23T10:41:32.124Z,99902.77
2022-11-23T10:42:32.475Z,99902.69
2022-11-23T10:43:33.260Z,99902.64
2022-11-23T10:44:34.176Z,99902.14
2022-11-23T10:45:33.850Z,99902.23
2022-11-23T10:46:34.143Z,99903.41
2022-11-23T10:47:34.284Z,99903.83
2022-11-23T10:48:34.700Z,99904.05
2022-11-23T10:49:35.089Z,99904.22
2022-11-23T10:50:35.725Z,99904.89
2022-11-23T10:51:36.067Z,99905.06
2022-11-23T10:52:36.194Z,99904.56
2022-11-23T10:53:36.543Z,99904.47
2022-11-23T10:54:37.023Z,99903.54
2022-11-23T10:55:36.912Z,99902.83
2022-11-23T10:56:37.371Z,99902.34
2022-11-23T10:57:37.499Z,99901.91
2022-11-23T10:58:38.486Z,99901.17
2022-11-23T10:59:39.204Z,99900.23
2022-11-23T11:00:40.401Z,99899.75
2022-11-23T11:01:40.552Z,99898.56
2022-11-23T11:01:49.252Z,99886.13
2022-11-23T11:02:50.068Z,99885.63
2022-11-23T11:03:50.320Z,99885.12
2022-11-23T11:04:55.811Z,99884.60
2022-11-23T11:06:08.654Z,99884.05
2022-11-23T11:06:51.638Z,99883.70
2022-11-23T11:07:53.517Z,99883.31
2022-11-23T11:08:52.719Z,99882.41
2022-11-23T11:09:53.519Z,99881.18
2022-11-23T11:10:53.952Z,99880.62
2022-11-23T11:11:54.560Z,99880.10
2022-11-23T11:12:54.738Z,99878.95
2022-11-23T11:13:54.954Z,99877.89
2022-11-23T11:14:55.385Z,99877.03
2022-11-23T11:15:56.033Z,99875.89
2022-11-23T11:16:56.636Z,99874.91
2022-11-23T11:17:57.045Z,99873.77
2022-11-23T11:18:57.236Z,99872.82
2022-11-23T11:19:57.542Z,99871.98
2022-11-23T11:20:58.197Z,99871.02
2022-11-23T11:21:58.684Z,99870.27
2022-11-23T11:22:58.984Z,99869.59
2022-11-23T11:23:59.392Z,99869.05
2022-11-23T11:24:59.449Z,99868.89
2022-11-23T11:25:59.584Z,99868.86
2022-11-23T11:27:00.455Z,99868.88
2022-11-23T11:28:00.777Z,99868.67
2022-11-23T11:29:01.756Z,99867.84